sensor_id;sensor_type;location;lat;lon;timestamp;P1;durP1;ratioP1;P2;durP2;ratioP2
48209;SDS011;33999;52.252;9.616;2022-08-21T00:03:03;4.07;;;1.60;;
48209;SDS011;33999;52.252;9.616;2022-08-21T00:06:06;5.35;;;1.75;;
48209;SDS011;33999;52.252;9.616;2022-08-21T00:09:14;5.30;;;1.60;;
48209;SDS011;33999;52.252;9.616;2022-08-21T00:12:16;4.68;;;1.45;;
48209;SDS011;33999;52.252;9.616;2022-08-21T00:15:21;3.92;;;1.50;;
48209;SDS011;33999;52.252;9.616;2022-08-21T00:18:27;5.22;;;1.50;;
48209;SDS011;33999;52.252;9.616;2022-08-21T00:21:29;5.68;;;1.60;;
48209;SDS011;33999;52.252;9.616;2022-08-21T00:24:31;4.60;;;1.67;;
48209;SDS011;33999;52.252;9.616;2022-08-21T00:27:32;4.05;;;1.60;;
48209;SDS011;33999;52.252;9.616;2022-08-21T00:30:35;6.35;;;1.90;;
48209;SDS011;33999;52.252;9.616;2022-08-21T00:33:37;5.70;;;1.70;;
48209;SDS011;33999;52.252;9.616;2022-08-21T00:36:39;5.47;;;1.80;;
48209;SDS011;33999;52.252;9.616;2022-08-21T00:39:41;4.15;;;1.60;;
48209;SDS011;33999;52.252;9.616;2022-08-21T00:42:42;6.82;;;1.77;;
48209;SDS011;33999;52.252;9.616;2022-08-21T00:45:54;4.60;;;1.63;;
48209;SDS011;33999;52.252;9.616;2022-08-21T00:48:57;4.32;;;1.55;;
48209;SDS011;33999;52.252;9.616;2022-08-21T00:52:00;3.30;;;1.60;;
48209;SDS011;33999;52.252;9.616;2022-08-21T00:55:03;4.70;;;1.63;;
48209;SDS011;33999;52.252;9.616;2022-08-21T00:58:09;4.00;;;1.70;;
48209;SDS011;33999;52.252;9.616;2022-08-21T01:01:13;4.68;;;1.65;;
48209;SDS011;33999;52.252;9.616;2022-08-21T01:04:16;5.15;;;1.60;;
48209;SDS011;33999;52.252;9.616;2022-08-21T01:07:18;7.22;;;1.70;;
48209;SDS011;33999;52.252;9.616;2022-08-21T01:10:23;6.68;;;1.77;;
48209;SDS011;33999;52.252;9.616;2022-08-21T01:13:25;3.40;;;1.45;;
48209;SDS011;33999;52.252;9.616;2022-08-21T01:16:28;4.47;;;1.70;;
48209;SDS011;33999;52.252;9.616;2022-08-21T01:19:30;4.05;;;1.60;;
48209;SDS011;33999;52.252;9.616;2022-08-21T01:22:32;3.38;;;1.40;;
48209;SDS011;33999;52.252;9.616;2022-08-21T01:25:34;5.47;;;1.60;;
48209;SDS011;33999;52.252;9.616;2022-08-21T01:28:37;4.22;;;1.60;;
48209;SDS011;33999;52.252;9.616;2022-08-21T01:31:43;5.15;;;1.70;;
48209;SDS011;33999;52.252;9.616;2022-08-21T01:34:46;3.17;;;1.52;;
48209;SDS011;33999;52.252;9.616;2022-08-21T01:37:48;6.05;;;1.73;;
48209;SDS011;33999;52.252;9.616;2022-08-21T01:40:50;5.13;;;1.73;;
48209;SDS011;33999;52.252;9.616;2022-08-21T01:43:52;5.68;;;1.70;;
48209;SDS011;33999;52.252;9.616;2022-08-21T01:46:54;5.20;;;1.75;;
48209;SDS011;33999;52.252;9.616;2022-08-21T01:49:57;4.70;;;1.50;;
48209;SDS011;33999;52.252;9.616;2022-08-21T01:52:59;4.40;;;1.50;;
48209;SDS011;33999;52.252;9.616;2022-08-21T01:56:01;4.72;;;1.60;;
48209;SDS011;33999;52.252;9.616;2022-08-21T01:59:03;4.22;;;1.70;;
48209;SDS011;33999;52.252;9.616;2022-08-21T02:02:05;5.63;;;1.70;;
48209;SDS011;33999;52.252;9.616;2022-08-21T02:05:07;10.27;;;1.90;;
48209;SDS011;33999;52.252;9.616;2022-08-21T02:08:10;4.72;;;1.88;;
48209;SDS011;33999;52.252;9.616;2022-08-21T02:11:12;5.25;;;2.17;;
48209;SDS011;33999;52.252;9.616;2022-08-21T02:14:14;9.02;;;2.38;;
48209;SDS011;33999;52.252;9.616;2022-08-21T02:17:37;5.88;;;1.88;;
48209;SDS011;33999;52.252;9.616;2022-08-21T02:20:47;4.28;;;1.63;;
48209;SDS011;33999;52.252;9.616;2022-08-21T02:23:57;4.85;;;1.80;;
48209;SDS011;33999;52.252;9.616;2022-08-21T02:26:58;4.22;;;1.70;;
48209;SDS011;33999;52.252;9.616;2022-08-21T02:30:00;5.82;;;2.05;;
48209;SDS011;33999;52.252;9.616;2022-08-21T02:33:02;5.45;;;1.75;;
48209;SDS011;33999;52.252;9.616;2022-08-21T02:36:04;5.32;;;2.00;;
48209;SDS011;33999;52.252;9.616;2022-08-21T02:39:06;4.72;;;1.88;;
48209;SDS011;33999;52.252;9.616;2022-08-21T02:42:07;5.35;;;1.80;;
48209;SDS011;33999;52.252;9.616;2022-08-21T02:45:09;8.98;;;2.40;;
48209;SDS011;33999;52.252;9.616;2022-08-21T02:48:15;4.30;;;1.90;;
48209;SDS011;33999;52.252;9.616;2022-08-21T02:51:22;3.90;;;1.83;;
48209;SDS011;33999;52.252;9.616;2022-08-21T02:54:24;4.00;;;1.85;;
48209;SDS011;33999;52.252;9.616;2022-08-21T02:57:25;4.75;;;1.73;;
48209;SDS011;33999;52.252;9.616;2022-08-21T03:00:28;5.90;;;1.90;;
48209;SDS011;33999;52.252;9.616;2022-08-21T03:03:30;5.80;;;2.10;;
48209;SDS011;33999;52.252;9.616;2022-08-21T03:06:32;6.78;;;2.10;;
48209;SDS011;33999;52.252;9.616;2022-08-21T03:09:34;5.25;;;2.10;;
48209;SDS011;33999;52.252;9.616;2022-08-21T03:12:36;5.72;;;2.47;;
48209;SDS011;33999;52.252;9.616;2022-08-21T03:15:38;6.47;;;2.10;;
48209;SDS011;33999;52.252;9.616;2022-08-21T03:18:41;5.78;;;1.80;;
48209;SDS011;33999;52.252;9.616;2022-08-21T03:21:42;4.63;;;2.00;;
48209;SDS011;33999;52.252;9.616;2022-08-21T03:24:44;4.68;;;1.80;;
48209;SDS011;33999;52.252;9.616;2022-08-21T03:27:46;4.78;;;1.85;;
48209;SDS011;33999;52.252;9.616;2022-08-21T03:30:53;3.88;;;1.98;;
48209;SDS011;33999;52.252;9.616;2022-08-21T03:33:55;5.18;;;1.92;;
48209;SDS011;33999;52.252;9.616;2022-08-21T03:36:57;5.35;;;1.90;;
48209;SDS011;33999;52.252;9.616;2022-08-21T03:39:59;4.60;;;2.22;;
48209;SDS011;33999;52.252;9.616;2022-08-21T03:43:01;4.82;;;2.00;;
48209;SDS011;33999;52.252;9.616;2022-08-21T03:46:03;4.15;;;1.80;;
48209;SDS011;33999;52.252;9.616;2022-08-21T03:49:06;5.07;;;2.10;;
48209;SDS011;33999;52.252;9.616;2022-08-21T03:52:08;5.35;;;1.95;;
48209;SDS011;33999;52.252;9.616;2022-08-21T03:55:10;5.78;;;2.13;;
48209;SDS011;33999;52.252;9.616;2022-08-21T03:58:12;5.72;;;1.90;;
48209;SDS011;33999;52.252;9.616;2022-08-21T04:01:17;4.80;;;1.80;;
48209;SDS011;33999;52.252;9.616;2022-08-21T04:04:19;6.18;;;1.98;;
48209;SDS011;33999;52.252;9.616;2022-08-21T04:07:20;5.30;;;1.90;;
48209;SDS011;33999;52.252;9.616;2022-08-21T04:10:22;4.75;;;1.95;;
48209;SDS011;33999;52.252;9.616;2022-08-21T04:13:25;7.95;;;2.10;;
48209;SDS011;33999;52.252;9.616;2022-08-21T04:16:29;5.10;;;1.92;;
48209;SDS011;33999;52.252;9.616;2022-08-21T04:19:32;4.13;;;1.63;;
48209;SDS011;33999;52.252;9.616;2022-08-21T04:22:33;5.72;;;1.70;;
48209;SDS011;33999;52.252;9.616;2022-08-21T04:25:35;5.15;;;2.05;;
48209;SDS011;33999;52.252;9.616;2022-08-21T04:28:37;4.90;;;2.00;;
48209;SDS011;33999;52.252;9.616;2022-08-21T04:31:38;5.32;;;2.30;;
48209;SDS011;33999;52.252;9.616;2022-08-21T04:34:40;5.75;;;2.22;;
48209;SDS011;33999;52.252;9.616;2022-08-21T04:37:42;5.18;;;1.90;;
48209;SDS011;33999;52.252;9.616;2022-08-21T04:40:43;6.55;;;2.30;;
48209;SDS011;33999;52.252;9.616;2022-08-21T04:43:45;6.35;;;2.10;;
48209;SDS011;33999;52.252;9.616;2022-08-21T04:46:47;8.52;;;2.60;;
48209;SDS011;33999;52.252;9.616;2022-08-21T04:49:49;6.15;;;2.13;;
48209;SDS011;33999;52.252;9.616;2022-08-21T04:52:52;5.15;;;2.08;;
48209;SDS011;33999;52.252;9.616;2022-08-21T04:55:54;4.00;;;2.13;;
48209;SDS011;33999;52.252;9.616;2022-08-21T04:59:03;4.93;;;2.30;;
48209;SDS011;33999;52.252;9.616;2022-08-21T05:02:07;10.97;;;2.47;;
48209;SDS011;33999;52.252;9.616;2022-08-21T05:05:10;5.00;;;2.10;;
48209;SDS011;33999;52.252;9.616;2022-08-21T05:08:13;8.48;;;2.38;;
48209;SDS011;33999;52.252;9.616;2022-08-21T05:14:21;7.88;;;2.58;;
48209;SDS011;33999;52.252;9.616;2022-08-21T05:17:23;6.75;;;2.28;;
48209;SDS011;33999;52.252;9.616;2022-08-21T05:20:24;8.13;;;2.40;;
48209;SDS011;33999;52.252;9.616;2022-08-21T05:23:26;8.40;;;3.00;;
48209;SDS011;33999;52.252;9.616;2022-08-21T05:26:28;7.88;;;2.50;;
48209;SDS011;33999;52.252;9.616;2022-08-21T05:29:29;6.63;;;2.20;;
48209;SDS011;33999;52.252;9.616;2022-08-21T05:32:32;7.93;;;2.47;;
48209;SDS011;33999;52.252;9.616;2022-08-21T05:35:35;7.65;;;2.28;;
48209;SDS011;33999;52.252;9.616;2022-08-21T05:38:38;8.30;;;2.40;;
48209;SDS011;33999;52.252;9.616;2022-08-21T05:41:40;11.63;;;2.40;;
48209;SDS011;33999;52.252;9.616;2022-08-21T05:44:42;6.18;;;2.20;;
48209;SDS011;33999;52.252;9.616;2022-08-21T05:47:45;6.28;;;2.00;;
48209;SDS011;33999;52.252;9.616;2022-08-21T05:50:47;6.95;;;2.20;;
48209;SDS011;33999;52.252;9.616;2022-08-21T05:53:50;7.32;;;2.42;;
48209;SDS011;33999;52.252;9.616;2022-08-21T05:56:52;6.65;;;2.38;;
48209;SDS011;33999;52.252;9.616;2022-08-21T05:59:54;8.55;;;2.42;;
48209;SDS011;33999;52.252;9.616;2022-08-21T06:02:55;6.00;;;2.30;;
48209;SDS011;33999;52.252;9.616;2022-08-21T06:05:57;8.48;;;2.50;;
48209;SDS011;33999;52.252;9.616;2022-08-21T06:08:59;5.95;;;2.40;;
48209;SDS011;33999;52.252;9.616;2022-08-21T06:12:08;7.13;;;2.70;;
48209;SDS011;33999;52.252;9.616;2022-08-21T06:15:12;7.75;;;2.65;;
48209;SDS011;33999;52.252;9.616;2022-08-21T06:18:13;7.00;;;2.75;;
48209;SDS011;33999;52.252;9.616;2022-08-21T06:21:16;6.40;;;2.60;;
48209;SDS011;33999;52.252;9.616;2022-08-21T06:24:17;4.80;;;2.22;;
48209;SDS011;33999;52.252;9.616;2022-08-21T06:27:19;6.72;;;2.33;;
48209;SDS011;33999;52.252;9.616;2022-08-21T06:30:26;5.10;;;2.30;;
48209;SDS011;33999;52.252;9.616;2022-08-21T06:33:28;8.27;;;3.03;;
48209;SDS011;33999;52.252;9.616;2022-08-21T06:36:33;8.63;;;2.60;;
48209;SDS011;33999;52.252;9.616;2022-08-21T06:39:35;7.40;;;2.40;;
48209;SDS011;33999;52.252;9.616;2022-08-21T06:42:36;7.45;;;2.50;;
48209;SDS011;33999;52.252;9.616;2022-08-21T06:45:41;7.50;;;2.25;;
48209;SDS011;33999;52.252;9.616;2022-08-21T06:48:43;5.72;;;1.60;;
48209;SDS011;33999;52.252;9.616;2022-08-21T06:51:45;8.00;;;2.53;;
48209;SDS011;33999;52.252;9.616;2022-08-21T06:54:46;7.20;;;2.00;;
48209;SDS011;33999;52.252;9.616;2022-08-21T06:57:48;4.25;;;1.73;;
48209;SDS011;33999;52.252;9.616;2022-08-21T07:00:53;7.05;;;2.15;;
48209;SDS011;33999;52.252;9.616;2022-08-21T07:04:00;6.43;;;1.92;;
48209;SDS011;33999;52.252;9.616;2022-08-21T07:07:03;5.30;;;1.60;;
48209;SDS011;33999;52.252;9.616;2022-08-21T07:10:05;5.70;;;1.65;;
48209;SDS011;33999;52.252;9.616;2022-08-21T07:13:07;6.82;;;1.65;;
48209;SDS011;33999;52.252;9.616;2022-08-21T07:16:08;4.78;;;1.85;;
48209;SDS011;33999;52.252;9.616;2022-08-21T07:19:10;8.35;;;1.80;;
48209;SDS011;33999;52.252;9.616;2022-08-21T07:22:11;5.15;;;1.75;;
48209;SDS011;33999;52.252;9.616;2022-08-21T07:25:17;8.03;;;2.30;;
48209;SDS011;33999;52.252;9.616;2022-08-21T07:28:19;8.40;;;2.00;;
48209;SDS011;33999;52.252;9.616;2022-08-21T07:31:22;5.78;;;1.80;;
48209;SDS011;33999;52.252;9.616;2022-08-21T07:34:24;6.50;;;1.80;;
48209;SDS011;33999;52.252;9.616;2022-08-21T07:37:26;7.40;;;1.95;;
48209;SDS011;33999;52.252;9.616;2022-08-21T07:40:28;6.05;;;1.90;;
48209;SDS011;33999;52.252;9.616;2022-08-21T07:43:29;6.90;;;1.80;;
48209;SDS011;33999;52.252;9.616;2022-08-21T07:46:31;5.78;;;1.80;;
48209;SDS011;33999;52.252;9.616;2022-08-21T07:49:33;8.85;;;2.10;;
48209;SDS011;33999;52.252;9.616;2022-08-21T07:52:34;5.22;;;1.67;;
48209;SDS011;33999;52.252;9.616;2022-08-21T07:55:36;7.68;;;1.85;;
48209;SDS011;33999;52.252;9.616;2022-08-21T07:58:38;4.97;;;1.98;;
48209;SDS011;33999;52.252;9.616;2022-08-21T08:01:39;7.15;;;1.73;;
48209;SDS011;33999;52.252;9.616;2022-08-21T08:04:41;5.90;;;1.83;;
48209;SDS011;33999;52.252;9.616;2022-08-21T08:07:51;7.18;;;1.70;;
48209;SDS011;33999;52.252;9.616;2022-08-21T08:10:53;6.18;;;1.90;;
48209;SDS011;33999;52.252;9.616;2022-08-21T08:13:58;6.00;;;1.80;;
48209;SDS011;33999;52.252;9.616;2022-08-21T08:17:00;5.97;;;1.80;;
48209;SDS011;33999;52.252;9.616;2022-08-21T08:20:04;5.22;;;1.42;;
48209;SDS011;33999;52.252;9.616;2022-08-21T08:23:11;5.95;;;1.70;;
48209;SDS011;33999;52.252;9.616;2022-08-21T08:26:14;5.95;;;1.50;;
48209;SDS011;33999;52.252;9.616;2022-08-21T08:29:16;6.07;;;1.63;;
48209;SDS011;33999;52.252;9.616;2022-08-21T08:32:18;5.82;;;1.60;;
48209;SDS011;33999;52.252;9.616;2022-08-21T08:35:20;5.10;;;1.80;;
48209;SDS011;33999;52.252;9.616;2022-08-21T08:38:24;6.82;;;2.00;;
48209;SDS011;33999;52.252;9.616;2022-08-21T08:41:26;6.10;;;1.77;;
48209;SDS011;33999;52.252;9.616;2022-08-21T08:44:31;5.32;;;1.70;;
48209;SDS011;33999;52.252;9.616;2022-08-21T08:47:34;6.25;;;1.90;;
48209;SDS011;33999;52.252;9.616;2022-08-21T08:53:58;4.72;;;1.70;;
48209;SDS011;33999;52.252;9.616;2022-08-21T08:57:06;8.68;;;2.05;;
48209;SDS011;33999;52.252;9.616;2022-08-21T09:00:11;5.10;;;1.65;;
48209;SDS011;33999;52.252;9.616;2022-08-21T09:09:34;4.75;;;1.50;;
48209;SDS011;33999;52.252;9.616;2022-08-21T09:16:20;6.38;;;1.70;;
48209;SDS011;33999;52.252;9.616;2022-08-21T09:26:11;5.20;;;1.77;;
48209;SDS011;33999;52.252;9.616;2022-08-21T09:29:15;8.10;;;1.80;;
48209;SDS011;33999;52.252;9.616;2022-08-21T09:32:22;7.72;;;1.80;;
48209;SDS011;33999;52.252;9.616;2022-08-21T09:35:47;7.05;;;1.80;;
48209;SDS011;33999;52.252;9.616;2022-08-21T09:38:52;6.40;;;1.80;;
48209;SDS011;33999;52.252;9.616;2022-08-21T09:42:01;7.10;;;1.65;;
48209;SDS011;33999;52.252;9.616;2022-08-21T09:45:15;5.03;;;1.50;;
48209;SDS011;33999;52.252;9.616;2022-08-21T09:48:23;3.92;;;1.30;;
48209;SDS011;33999;52.252;9.616;2022-08-21T09:51:34;4.93;;;1.50;;
48209;SDS011;33999;52.252;9.616;2022-08-21T09:54:40;5.95;;;1.70;;
48209;SDS011;33999;52.252;9.616;2022-08-21T09:57:43;7.35;;;1.90;;
48209;SDS011;33999;52.252;9.616;2022-08-21T10:00:58;8.68;;;2.00;;
48209;SDS011;33999;52.252;9.616;2022-08-21T10:04:03;6.13;;;1.60;;
48209;SDS011;33999;52.252;9.616;2022-08-21T10:07:10;6.88;;;1.60;;
48209;SDS011;33999;52.252;9.616;2022-08-21T10:10:15;4.47;;;1.30;;
48209;SDS011;33999;52.252;9.616;2022-08-21T10:19:51;6.30;;;1.48;;
48209;SDS011;33999;52.252;9.616;2022-08-21T10:46:36;6.13;;;1.70;;
48209;SDS011;33999;52.252;9.616;2022-08-21T10:50:08;4.43;;;1.30;;
48209;SDS011;33999;52.252;9.616;2022-08-21T10:56:46;4.85;;;1.38;;
48209;SDS011;33999;52.252;9.616;2022-08-21T10:59:55;5.45;;;1.40;;
48209;SDS011;33999;52.252;9.616;2022-08-21T11:03:03;5.47;;;1.52;;
48209;SDS011;33999;52.252;9.616;2022-08-21T11:06:13;5.32;;;1.40;;
48209;SDS011;33999;52.252;9.616;2022-08-21T11:09:25;3.80;;;1.30;;
48209;SDS011;33999;52.252;9.616;2022-08-21T11:12:31;5.88;;;1.58;;
48209;SDS011;33999;52.252;9.616;2022-08-21T11:19:00;5.93;;;1.63;;
48209;SDS011;33999;52.252;9.616;2022-08-21T11:22:24;3.97;;;1.30;;
48209;SDS011;33999;52.252;9.616;2022-08-21T11:25:32;4.93;;;1.35;;
48209;SDS011;33999;52.252;9.616;2022-08-21T11:38:57;4.53;;;1.20;;
48209;SDS011;33999;52.252;9.616;2022-08-21T11:45:38;4.88;;;1.42;;
48209;SDS011;33999;52.252;9.616;2022-08-21T11:58:39;6.60;;;1.30;;
48209;SDS011;33999;52.252;9.616;2022-08-21T12:04:55;4.70;;;1.25;;
48209;SDS011;33999;52.252;9.616;2022-08-21T12:11:22;4.30;;;1.30;;
48209;SDS011;33999;52.252;9.616;2022-08-21T12:14:42;4.88;;;1.38;;
48209;SDS011;33999;52.252;9.616;2022-08-21T12:21:20;5.45;;;1.30;;
48209;SDS011;33999;52.252;9.616;2022-08-21T12:24:43;4.30;;;1.35;;
48209;SDS011;33999;52.252;9.616;2022-08-21T12:27:46;6.75;;;1.30;;
48209;SDS011;33999;52.252;9.616;2022-08-21T12:30:53;3.55;;;1.23;;
48209;SDS011;33999;52.252;9.616;2022-08-21T12:33:59;5.90;;;1.50;;
48209;SDS011;33999;52.252;9.616;2022-08-21T12:37:16;4.05;;;1.40;;
48209;SDS011;33999;52.252;9.616;2022-08-21T12:43:56;4.25;;;1.50;;
48209;SDS011;33999;52.252;9.616;2022-08-21T12:47:06;4.43;;;1.33;;
48209;SDS011;33999;52.252;9.616;2022-08-21T12:50:20;3.70;;;1.30;;
48209;SDS011;33999;52.252;9.616;2022-08-21T12:53:35;4.25;;;1.30;;
48209;SDS011;33999;52.252;9.616;2022-08-21T12:56:54;3.63;;;1.20;;
48209;SDS011;33999;52.252;9.616;2022-08-21T12:59:59;5.78;;;1.48;;
48209;SDS011;33999;52.252;9.616;2022-08-21T13:03:02;4.13;;;1.30;;
48209;SDS011;33999;52.252;9.616;2022-08-21T13:06:05;5.93;;;1.30;;
48209;SDS011;33999;52.252;9.616;2022-08-21T13:09:08;4.85;;;1.40;;
48209;SDS011;33999;52.252;9.616;2022-08-21T13:12:17;3.97;;;1.40;;
48209;SDS011;33999;52.252;9.616;2022-08-21T13:15:26;6.82;;;1.70;;
48209;SDS011;33999;52.252;9.616;2022-08-21T13:18:35;4.00;;;1.30;;
48209;SDS011;33999;52.252;9.616;2022-08-21T13:21:44;4.10;;;1.50;;
48209;SDS011;33999;52.252;9.616;2022-08-21T13:24:47;4.85;;;1.75;;
48209;SDS011;33999;52.252;9.616;2022-08-21T13:27:58;5.47;;;1.50;;
48209;SDS011;33999;52.252;9.616;2022-08-21T13:31:15;3.55;;;1.30;;
48209;SDS011;33999;52.252;9.616;2022-08-21T13:34:24;4.03;;;1.40;;
48209;SDS011;33999;52.252;9.616;2022-08-21T13:37:30;3.78;;;1.27;;
48209;SDS011;33999;52.252;9.616;2022-08-21T13:40:38;4.68;;;1.20;;
48209;SDS011;33999;52.252;9.616;2022-08-21T13:43:45;3.70;;;1.40;;
48209;SDS011;33999;52.252;9.616;2022-08-21T13:49:51;4.90;;;1.50;;
48209;SDS011;33999;52.252;9.616;2022-08-21T13:53:00;4.88;;;1.50;;
48209;SDS011;33999;52.252;9.616;2022-08-21T13:56:04;4.30;;;1.48;;
48209;SDS011;33999;52.252;9.616;2022-08-21T13:59:06;3.90;;;1.70;;
48209;SDS011;33999;52.252;9.616;2022-08-21T14:05:18;2.80;;;1.25;;
48209;SDS011;33999;52.252;9.616;2022-08-21T14:08:35;3.95;;;1.40;;
48209;SDS011;33999;52.252;9.616;2022-08-21T14:11:41;4.47;;;1.70;;
48209;SDS011;33999;52.252;9.616;2022-08-21T14:14:42;4.80;;;1.48;;
48209;SDS011;33999;52.252;9.616;2022-08-21T14:17:45;4.75;;;1.48;;
48209;SDS011;33999;52.252;9.616;2022-08-21T14:20:48;3.60;;;1.63;;
48209;SDS011;33999;52.252;9.616;2022-08-21T14:27:24;4.20;;;1.73;;
48209;SDS011;33999;52.252;9.616;2022-08-21T14:30:28;4.07;;;1.98;;
48209;SDS011;33999;52.252;9.616;2022-08-21T14:33:35;4.20;;;1.75;;
48209;SDS011;33999;52.252;9.616;2022-08-21T14:36:36;5.75;;;1.88;;
48209;SDS011;33999;52.252;9.616;2022-08-21T14:39:38;4.88;;;1.92;;
48209;SDS011;33999;52.252;9.616;2022-08-21T14:42:45;4.97;;;1.70;;
48209;SDS011;33999;52.252;9.616;2022-08-21T14:45:48;6.20;;;1.90;;
48209;SDS011;33999;52.252;9.616;2022-08-21T14:48:49;5.28;;;1.90;;
48209;SDS011;33999;52.252;9.616;2022-08-21T14:51:52;6.47;;;1.80;;
48209;SDS011;33999;52.252;9.616;2022-08-21T14:54:58;5.05;;;2.20;;
48209;SDS011;33999;52.252;9.616;2022-08-21T14:57:59;5.18;;;2.10;;
48209;SDS011;33999;52.252;9.616;2022-08-21T15:01:01;4.50;;;2.20;;
48209;SDS011;33999;52.252;9.616;2022-08-21T15:04:05;3.85;;;2.00;;
48209;SDS011;33999;52.252;9.616;2022-08-21T15:07:07;6.15;;;1.90;;
48209;SDS011;33999;52.252;9.616;2022-08-21T15:10:08;5.35;;;1.90;;
48209;SDS011;33999;52.252;9.616;2022-08-21T15:13:11;6.95;;;2.00;;
48209;SDS011;33999;52.252;9.616;2022-08-21T15:16:12;8.07;;;2.20;;
48209;SDS011;33999;52.252;9.616;2022-08-21T15:19:14;5.15;;;2.10;;
48209;SDS011;33999;52.252;9.616;2022-08-21T15:22:16;6.25;;;2.17;;
48209;SDS011;33999;52.252;9.616;2022-08-21T15:25:28;5.55;;;2.10;;
48209;SDS011;33999;52.252;9.616;2022-08-21T15:28:30;4.20;;;1.90;;
48209;SDS011;33999;52.252;9.616;2022-08-21T15:31:32;4.88;;;2.00;;
48209;SDS011;33999;52.252;9.616;2022-08-21T15:34:34;5.40;;;2.03;;
48209;SDS011;33999;52.252;9.616;2022-08-21T15:37:35;7.15;;;1.80;;
48209;SDS011;33999;52.252;9.616;2022-08-21T15:40:37;3.35;;;1.60;;
48209;SDS011;33999;52.252;9.616;2022-08-21T15:43:48;5.60;;;1.70;;
48209;SDS011;33999;52.252;9.616;2022-08-21T15:46:52;4.22;;;1.70;;
48209;SDS011;33999;52.252;9.616;2022-08-21T15:49:54;5.03;;;1.70;;
48209;SDS011;33999;52.252;9.616;2022-08-21T15:52:56;3.97;;;1.70;;
48209;SDS011;33999;52.252;9.616;2022-08-21T15:55:59;6.05;;;2.03;;
48209;SDS011;33999;52.252;9.616;2022-08-21T15:59:07;4.68;;;1.80;;
48209;SDS011;33999;52.252;9.616;2022-08-21T16:02:32;4.70;;;1.80;;
48209;SDS011;33999;52.252;9.616;2022-08-21T16:05:33;8.05;;;2.00;;
48209;SDS011;33999;52.252;9.616;2022-08-21T16:08:35;6.05;;;2.10;;
48209;SDS011;33999;52.252;9.616;2022-08-21T16:11:38;3.45;;;1.75;;
48209;SDS011;33999;52.252;9.616;2022-08-21T16:14:39;5.50;;;2.00;;
48209;SDS011;33999;52.252;9.616;2022-08-21T16:17:42;4.82;;;2.08;;
48209;SDS011;33999;52.252;9.616;2022-08-21T16:20:48;4.22;;;1.80;;
48209;SDS011;33999;52.252;9.616;2022-08-21T16:23:50;6.65;;;2.15;;
48209;SDS011;33999;52.252;9.616;2022-08-21T16:26:52;3.60;;;1.70;;
48209;SDS011;33999;52.252;9.616;2022-08-21T16:29:58;4.72;;;2.00;;
48209;SDS011;33999;52.252;9.616;2022-08-21T16:33:01;5.07;;;2.33;;
48209;SDS011;33999;52.252;9.616;2022-08-21T16:36:05;5.57;;;2.17;;
48209;SDS011;33999;52.252;9.616;2022-08-21T16:39:08;5.65;;;2.13;;
48209;SDS011;33999;52.252;9.616;2022-08-21T16:42:11;5.38;;;2.33;;
48209;SDS011;33999;52.252;9.616;2022-08-21T16:45:20;4.85;;;2.25;;
48209;SDS011;33999;52.252;9.616;2022-08-21T16:48:22;5.78;;;2.15;;
48209;SDS011;33999;52.252;9.616;2022-08-21T16:51:25;5.72;;;2.10;;
48209;SDS011;33999;52.252;9.616;2022-08-21T16:54:26;5.90;;;2.00;;
48209;SDS011;33999;52.252;9.616;2022-08-21T16:57:31;5.55;;;2.40;;
48209;SDS011;33999;52.252;9.616;2022-08-21T17:00:32;4.63;;;1.98;;
48209;SDS011;33999;52.252;9.616;2022-08-21T17:03:36;4.32;;;2.20;;
48209;SDS011;33999;52.252;9.616;2022-08-21T17:06:42;4.75;;;2.00;;
48209;SDS011;33999;52.252;9.616;2022-08-21T17:09:44;3.97;;;2.00;;
48209;SDS011;33999;52.252;9.616;2022-08-21T17:12:48;4.35;;;2.10;;
48209;SDS011;33999;52.252;9.616;2022-08-21T17:15:56;3.75;;;2.00;;
48209;SDS011;33999;52.252;9.616;2022-08-21T17:18:58;4.72;;;2.22;;
48209;SDS011;33999;52.252;9.616;2022-08-21T17:21:59;4.20;;;2.10;;
48209;SDS011;33999;52.252;9.616;2022-08-21T17:25:01;4.47;;;2.00;;
48209;SDS011;33999;52.252;9.616;2022-08-21T17:28:03;4.65;;;2.17;;
48209;SDS011;33999;52.252;9.616;2022-08-21T17:31:06;5.25;;;2.30;;
48209;SDS011;33999;52.252;9.616;2022-08-21T17:34:11;4.65;;;2.10;;
48209;SDS011;33999;52.252;9.616;2022-08-21T17:37:13;4.40;;;1.90;;
48209;SDS011;33999;52.252;9.616;2022-08-21T17:40:15;6.70;;;2.10;;
48209;SDS011;33999;52.252;9.616;2022-08-21T17:43:17;5.43;;;2.30;;
48209;SDS011;33999;52.252;9.616;2022-08-21T17:46:20;4.95;;;2.20;;
48209;SDS011;33999;52.252;9.616;2022-08-21T17:49:24;5.47;;;2.05;;
48209;SDS011;33999;52.252;9.616;2022-08-21T17:52:26;5.85;;;2.20;;
48209;SDS011;33999;52.252;9.616;2022-08-21T17:55:27;5.80;;;2.42;;
48209;SDS011;33999;52.252;9.616;2022-08-21T17:58:30;5.28;;;2.40;;
48209;SDS011;33999;52.252;9.616;2022-08-21T18:01:37;3.97;;;2.30;;
48209;SDS011;33999;52.252;9.616;2022-08-21T18:04:42;4.53;;;2.00;;
48209;SDS011;33999;52.252;9.616;2022-08-21T18:07:44;3.80;;;2.00;;
48209;SDS011;33999;52.252;9.616;2022-08-21T18:10:47;5.07;;;2.22;;
48209;SDS011;33999;52.252;9.616;2022-08-21T18:13:50;5.38;;;1.98;;
48209;SDS011;33999;52.252;9.616;2022-08-21T18:16:54;4.15;;;2.08;;
48209;SDS011;33999;52.252;9.616;2022-08-21T18:19:56;5.13;;;2.10;;
48209;SDS011;33999;52.252;9.616;2022-08-21T18:22:59;4.65;;;2.30;;
48209;SDS011;33999;52.252;9.616;2022-08-21T18:26:01;5.75;;;2.55;;
48209;SDS011;33999;52.252;9.616;2022-08-21T18:29:07;3.42;;;1.95;;
48209;SDS011;33999;52.252;9.616;2022-08-21T18:32:10;5.78;;;2.03;;
48209;SDS011;33999;52.252;9.616;2022-08-21T18:35:32;6.00;;;2.20;;
48209;SDS011;33999;52.252;9.616;2022-08-21T18:38:33;6.00;;;2.13;;
48209;SDS011;33999;52.252;9.616;2022-08-21T18:41:36;3.92;;;2.00;;
48209;SDS011;33999;52.252;9.616;2022-08-21T18:44:38;4.80;;;2.08;;
48209;SDS011;33999;52.252;9.616;2022-08-21T18:47:44;5.28;;;1.90;;
48209;SDS011;33999;52.252;9.616;2022-08-21T18:50:48;4.05;;;1.73;;
48209;SDS011;33999;52.252;9.616;2022-08-21T18:53:50;3.88;;;1.75;;
48209;SDS011;33999;52.252;9.616;2022-08-21T18:56:56;3.65;;;1.70;;
48209;SDS011;33999;52.252;9.616;2022-08-21T18:59:58;3.40;;;1.60;;
48209;SDS011;33999;52.252;9.616;2022-08-21T19:03:01;5.03;;;1.67;;
48209;SDS011;33999;52.252;9.616;2022-08-21T19:06:23;3.38;;;1.42;;
48209;SDS011;33999;52.252;9.616;2022-08-21T19:09:24;5.53;;;1.50;;
48209;SDS011;33999;52.252;9.616;2022-08-21T19:12:26;3.08;;;1.45;;
48209;SDS011;33999;52.252;9.616;2022-08-21T19:15:31;3.50;;;1.50;;
48209;SDS011;33999;52.252;9.616;2022-08-21T19:18:38;4.00;;;1.40;;
48209;SDS011;33999;52.252;9.616;2022-08-21T19:21:42;4.75;;;1.70;;
48209;SDS011;33999;52.252;9.616;2022-08-21T19:24:44;4.88;;;1.80;;
48209;SDS011;33999;52.252;9.616;2022-08-21T19:27:50;5.60;;;1.80;;
48209;SDS011;33999;52.252;9.616;2022-08-21T19:30:54;4.20;;;1.77;;
48209;SDS011;33999;52.252;9.616;2022-08-21T19:34:11;4.93;;;1.80;;
48209;SDS011;33999;52.252;9.616;2022-08-21T19:37:16;4.30;;;1.60;;
48209;SDS011;33999;52.252;9.616;2022-08-21T19:40:18;3.45;;;1.50;;
48209;SDS011;33999;52.252;9.616;2022-08-21T19:43:22;4.10;;;1.70;;
48209;SDS011;33999;52.252;9.616;2022-08-21T19:46:32;3.78;;;1.60;;
48209;SDS011;33999;52.252;9.616;2022-08-21T19:49:36;6.50;;;2.70;;
48209;SDS011;33999;52.252;9.616;2022-08-21T19:52:42;4.82;;;1.83;;
48209;SDS011;33999;52.252;9.616;2022-08-21T19:55:51;5.47;;;1.90;;
48209;SDS011;33999;52.252;9.616;2022-08-21T19:58:53;3.28;;;1.70;;
48209;SDS011;33999;52.252;9.616;2022-08-21T20:01:56;4.43;;;1.67;;
48209;SDS011;33999;52.252;9.616;2022-08-21T20:04:57;4.95;;;1.80;;
48209;SDS011;33999;52.252;9.616;2022-08-21T20:07:59;5.13;;;1.90;;
48209;SDS011;33999;52.252;9.616;2022-08-21T20:11:01;4.32;;;1.85;;
48209;SDS011;33999;52.252;9.616;2022-08-21T20:14:05;4.45;;;2.22;;
48209;SDS011;33999;52.252;9.616;2022-08-21T20:17:09;7.22;;;2.00;;
48209;SDS011;33999;52.252;9.616;2022-08-21T20:20:14;4.40;;;1.55;;